sensor_id;sensor_type;location;lat;lon;timestamp;P1;durP1;ratioP1;P2;durP2;ratioP2
52934;SDS011;38802;50.198;19.796;2022-10-26T00:01:20;64.70;;;41.30;;
52934;SDS011;38802;50.198;19.796;2022-10-26T00:03:49;59.50;;;41.10;;
52934;SDS011;38802;50.198;19.796;2022-10-26T00:06:18;61.20;;;45.80;;
52934;SDS011;38802;50.198;19.796;2022-10-26T00:08:47;62.90;;;43.80;;
52934;SDS011;38802;50.198;19.796;2022-10-26T00:11:16;69.30;;;47.00;;
52934;SDS011;38802;50.198;19.796;2022-10-26T00:13:45;70.80;;;43.50;;
52934;SDS011;38802;50.198;19.796;2022-10-26T00:16:18;69.30;;;48.50;;
52934;SDS011;38802;50.198;19.796;2022-10-26T00:18:52;70.50;;;46.80;;
52934;SDS011;38802;50.198;19.796;2022-10-26T00:21:20;70.20;;;46.20;;
52934;SDS011;38802;50.198;19.796;2022-10-26T00:23:48;63.30;;;41.70;;
52934;SDS011;38802;50.198;19.796;2022-10-26T00:26:16;69.60;;;46.80;;
52934;SDS011;38802;50.198;19.796;2022-10-26T00:28:44;70.00;;;46.40;;
52934;SDS011;38802;50.198;19.796;2022-10-26T00:31:13;71.50;;;47.70;;
52934;SDS011;38802;50.198;19.796;2022-10-26T00:33:42;63.80;;;42.80;;
52934;SDS011;38802;50.198;19.796;2022-10-26T00:38:47;66.00;;;42.60;;
52934;SDS011;38802;50.198;19.796;2022-10-26T00:41:17;61.40;;;40.10;;
52934;SDS011;38802;50.198;19.796;2022-10-26T00:43:48;68.80;;;40.00;;
52934;SDS011;38802;50.198;19.796;2022-10-26T00:49:08;54.70;;;35.80;;
52934;SDS011;38802;50.198;19.796;2022-10-26T00:51:43;54.50;;;37.30;;
52934;SDS011;38802;50.198;19.796;2022-10-26T00:54:16;60.50;;;37.40;;
52934;SDS011;38802;50.198;19.796;2022-10-26T00:56:46;57.60;;;38.40;;
52934;SDS011;38802;50.198;19.796;2022-10-26T00:59:18;53.60;;;37.10;;
52934;SDS011;38802;50.198;19.796;2022-10-26T01:01:49;64.10;;;39.10;;
52934;SDS011;38802;50.198;19.796;2022-10-26T01:04:19;63.60;;;38.90;;
52934;SDS011;38802;50.198;19.796;2022-10-26T01:06:47;56.70;;;38.50;;
52934;SDS011;38802;50.198;19.796;2022-10-26T01:09:15;60.60;;;39.40;;
52934;SDS011;38802;50.198;19.796;2022-10-26T01:11:45;66.20;;;39.50;;
52934;SDS011;38802;50.198;19.796;2022-10-26T01:14:16;67.40;;;39.20;;
52934;SDS011;38802;50.198;19.796;2022-10-26T01:22:08;60.40;;;38.20;;
52934;SDS011;38802;50.198;19.796;2022-10-26T01:33:14;56.30;;;34.60;;
52934;SDS011;38802;50.198;19.796;2022-10-26T01:43:27;51.70;;;32.70;;
52934;SDS011;38802;50.198;19.796;2022-10-26T01:46:01;44.90;;;31.10;;
52934;SDS011;38802;50.198;19.796;2022-10-26T01:48:32;45.80;;;30.60;;
52934;SDS011;38802;50.198;19.796;2022-10-26T01:51:02;42.20;;;29.00;;
52934;SDS011;38802;50.198;19.796;2022-10-26T01:53:32;48.30;;;31.20;;
52934;SDS011;38802;50.198;19.796;2022-10-26T01:56:00;50.70;;;31.70;;
52934;SDS011;38802;50.198;19.796;2022-10-26T01:58:39;43.00;;;26.50;;
52934;SDS011;38802;50.198;19.796;2022-10-26T02:07:29;55.20;;;34.80;;
52934;SDS011;38802;50.198;19.796;2022-10-26T02:15:26;61.10;;;36.20;;
52934;SDS011;38802;50.198;19.796;2022-10-26T02:20:38;52.90;;;33.90;;
52934;SDS011;38802;50.198;19.796;2022-10-26T02:23:10;57.90;;;36.00;;
52934;SDS011;38802;50.198;19.796;2022-10-26T02:25:43;50.40;;;33.00;;
52934;SDS011;38802;50.198;19.796;2022-10-26T02:28:16;57.10;;;35.30;;
52934;SDS011;38802;50.198;19.796;2022-10-26T02:30:49;55.60;;;32.30;;
52934;SDS011;38802;50.198;19.796;2022-10-26T02:33:22;44.60;;;31.70;;
52934;SDS011;38802;50.198;19.796;2022-10-26T02:35:52;44.70;;;32.30;;
52934;SDS011;38802;50.198;19.796;2022-10-26T02:38:22;48.70;;;32.60;;
52934;SDS011;38802;50.198;19.796;2022-10-26T02:40:52;50.50;;;30.60;;
52934;SDS011;38802;50.198;19.796;2022-10-26T02:43:23;42.70;;;30.30;;
52934;SDS011;38802;50.198;19.796;2022-10-26T02:45:55;48.30;;;28.10;;
52934;SDS011;38802;50.198;19.796;2022-10-26T02:48:26;48.90;;;32.40;;
52934;SDS011;38802;50.198;19.796;2022-10-26T02:53:30;55.10;;;34.90;;
52934;SDS011;38802;50.198;19.796;2022-10-26T02:56:39;59.90;;;37.40;;
52934;SDS011;38802;50.198;19.796;2022-10-26T02:59:01;57.80;;;38.40;;
52934;SDS011;38802;50.198;19.796;2022-10-26T03:01:32;52.50;;;38.00;;
52934;SDS011;38802;50.198;19.796;2022-10-26T03:04:01;54.80;;;36.90;;
52934;SDS011;38802;50.198;19.796;2022-10-26T03:06:29;59.60;;;38.20;;
52934;SDS011;38802;50.198;19.796;2022-10-26T03:08:57;62.00;;;35.90;;
52934;SDS011;38802;50.198;19.796;2022-10-26T03:11:26;57.50;;;37.50;;
52934;SDS011;38802;50.198;19.796;2022-10-26T03:13:54;58.20;;;36.70;;
52934;SDS011;38802;50.198;19.796;2022-10-26T03:16:22;61.00;;;38.20;;
52934;SDS011;38802;50.198;19.796;2022-10-26T03:18:50;58.20;;;37.20;;
52934;SDS011;38802;50.198;19.796;2022-10-26T03:21:18;59.80;;;38.40;;
52934;SDS011;38802;50.198;19.796;2022-10-26T03:23:46;62.30;;;38.20;;
52934;SDS011;38802;50.198;19.796;2022-10-26T03:26:14;67.60;;;40.90;;
52934;SDS011;38802;50.198;19.796;2022-10-26T03:28:42;61.00;;;36.80;;
52934;SDS011;38802;50.198;19.796;2022-10-26T03:31:11;67.70;;;40.80;;
52934;SDS011;38802;50.198;19.796;2022-10-26T03:33:39;60.30;;;39.70;;
52934;SDS011;38802;50.198;19.796;2022-10-26T03:36:07;55.10;;;38.70;;
52934;SDS011;38802;50.198;19.796;2022-10-26T03:38:37;61.10;;;39.70;;
52934;SDS011;38802;50.198;19.796;2022-10-26T03:41:04;63.10;;;40.40;;
52934;SDS011;38802;50.198;19.796;2022-10-26T03:43:32;57.80;;;39.10;;
52934;SDS011;38802;50.198;19.796;2022-10-26T03:46:00;57.10;;;35.90;;
52934;SDS011;38802;50.198;19.796;2022-10-26T03:48:28;53.10;;;35.60;;
52934;SDS011;38802;50.198;19.796;2022-10-26T03:50:57;43.60;;;30.90;;
52934;SDS011;38802;50.198;19.796;2022-10-26T03:53:26;56.50;;;34.10;;
52934;SDS011;38802;50.198;19.796;2022-10-26T03:55:54;64.40;;;35.80;;
52934;SDS011;38802;50.198;19.796;2022-10-26T03:58:22;46.00;;;31.70;;
52934;SDS011;38802;50.198;19.796;2022-10-26T04:00:50;48.00;;;30.80;;
52934;SDS011;38802;50.198;19.796;2022-10-26T04:03:18;48.60;;;31.80;;
52934;SDS011;38802;50.198;19.796;2022-10-26T04:05:46;52.30;;;30.70;;
52934;SDS011;38802;50.198;19.796;2022-10-26T04:08:15;44.90;;;29.90;;
52934;SDS011;38802;50.198;19.796;2022-10-26T04:10:44;46.30;;;30.10;;
52934;SDS011;38802;50.198;19.796;2022-10-26T04:13:12;40.90;;;28.50;;
52934;SDS011;38802;50.198;19.796;2022-10-26T04:15:40;40.30;;;26.80;;
52934;SDS011;38802;50.198;19.796;2022-10-26T04:18:09;40.10;;;28.90;;
52934;SDS011;38802;50.198;19.796;2022-10-26T04:20:40;42.00;;;28.80;;
52934;SDS011;38802;50.198;19.796;2022-10-26T04:23:10;39.90;;;27.30;;
52934;SDS011;38802;50.198;19.796;2022-10-26T04:25:41;37.10;;;25.60;;
52934;SDS011;38802;50.198;19.796;2022-10-26T04:28:10;36.70;;;24.70;;
52934;SDS011;38802;50.198;19.796;2022-10-26T04:30:39;34.10;;;24.50;;
52934;SDS011;38802;50.198;19.796;2022-10-26T04:33:08;37.50;;;24.40;;
52934;SDS011;38802;50.198;19.796;2022-10-26T04:35:36;36.60;;;25.10;;
52934;SDS011;38802;50.198;19.796;2022-10-26T04:38:05;47.10;;;27.10;;
52934;SDS011;38802;50.198;19.796;2022-10-26T04:40:33;44.80;;;27.60;;
52934;SDS011;38802;50.198;19.796;2022-10-26T04:43:02;42.70;;;28.20;;
52934;SDS011;38802;50.198;19.796;2022-10-26T04:45:30;45.00;;;28.10;;
52934;SDS011;38802;50.198;19.796;2022-10-26T04:48:01;39.70;;;22.70;;
52934;SDS011;38802;50.198;19.796;2022-10-26T04:50:32;50.50;;;27.30;;
52934;SDS011;38802;50.198;19.796;2022-10-26T04:53:03;50.30;;;28.30;;
52934;SDS011;38802;50.198;19.796;2022-10-26T04:55:32;49.40;;;30.70;;
52934;SDS011;38802;50.198;19.796;2022-10-26T04:58:01;44.60;;;30.10;;
52934;SDS011;38802;50.198;19.796;2022-10-26T05:00:30;45.60;;;27.60;;
52934;SDS011;38802;50.198;19.796;2022-10-26T05:03:04;49.40;;;28.30;;
52934;SDS011;38802;50.198;19.796;2022-10-26T05:05:34;40.30;;;27.90;;
52934;SDS011;38802;50.198;19.796;2022-10-26T05:08:04;38.50;;;27.60;;
52934;SDS011;38802;50.198;19.796;2022-10-26T05:10:32;40.80;;;27.20;;
52934;SDS011;38802;50.198;19.796;2022-10-26T05:13:01;37.50;;;26.40;;
52934;SDS011;38802;50.198;19.796;2022-10-26T05:15:29;41.00;;;26.40;;
52934;SDS011;38802;50.198;19.796;2022-10-26T05:17:58;45.10;;;26.20;;
52934;SDS011;38802;50.198;19.796;2022-10-26T05:20:30;37.00;;;26.50;;
52934;SDS011;38802;50.198;19.796;2022-10-26T05:23:03;41.80;;;26.80;;
52934;SDS011;38802;50.198;19.796;2022-10-26T05:25:33;36.10;;;26.40;;
52934;SDS011;38802;50.198;19.796;2022-10-26T05:28:05;39.90;;;25.90;;
52934;SDS011;38802;50.198;19.796;2022-10-26T05:33:09;34.30;;;23.30;;
52934;SDS011;38802;50.198;19.796;2022-10-26T05:35:39;35.80;;;24.90;;
52934;SDS011;38802;50.198;19.796;2022-10-26T05:38:07;41.90;;;26.00;;
52934;SDS011;38802;50.198;19.796;2022-10-26T05:40:36;38.30;;;25.40;;
52934;SDS011;38802;50.198;19.796;2022-10-26T05:43:05;34.20;;;23.40;;
52934;SDS011;38802;50.198;19.796;2022-10-26T05:45:33;35.70;;;24.50;;
52934;SDS011;38802;50.198;19.796;2022-10-26T05:48:01;37.90;;;25.90;;
52934;SDS011;38802;50.198;19.796;2022-10-26T05:50:30;38.60;;;25.70;;
52934;SDS011;38802;50.198;19.796;2022-10-26T05:52:58;40.40;;;25.30;;
52934;SDS011;38802;50.198;19.796;2022-10-26T05:55:26;41.50;;;26.80;;
52934;SDS011;38802;50.198;19.796;2022-10-26T05:57:54;43.80;;;25.80;;
52934;SDS011;38802;50.198;19.796;2022-10-26T06:00:24;45.90;;;24.70;;
52934;SDS011;38802;50.198;19.796;2022-10-26T06:05:58;39.20;;;22.10;;
52934;SDS011;38802;50.198;19.796;2022-10-26T06:08:31;31.60;;;23.90;;
52934;SDS011;38802;50.198;19.796;2022-10-26T06:11:00;43.00;;;24.50;;
52934;SDS011;38802;50.198;19.796;2022-10-26T06:13:29;41.20;;;26.80;;
52934;SDS011;38802;50.198;19.796;2022-10-26T06:21:44;46.20;;;26.80;;
52934;SDS011;38802;50.198;19.796;2022-10-26T06:24:54;44.10;;;26.60;;
52934;SDS011;38802;50.198;19.796;2022-10-26T06:27:29;37.30;;;25.50;;
52934;SDS011;38802;50.198;19.796;2022-10-26T06:30:19;37.90;;;26.30;;
52934;SDS011;38802;50.198;19.796;2022-10-26T06:32:50;53.80;;;30.30;;
52934;SDS011;38802;50.198;19.796;2022-10-26T06:38:13;46.10;;;28.70;;
52934;SDS011;38802;50.198;19.796;2022-10-26T06:40:45;47.30;;;30.70;;
52934;SDS011;38802;50.198;19.796;2022-10-26T06:43:23;56.30;;;31.10;;
52934;SDS011;38802;50.198;19.796;2022-10-26T06:45:55;53.30;;;30.30;;
52934;SDS011;38802;50.198;19.796;2022-10-26T06:48:37;65.10;;;33.20;;
52934;SDS011;38802;50.198;19.796;2022-10-26T06:51:14;39.20;;;25.30;;
52934;SDS011;38802;50.198;19.796;2022-10-26T06:56:52;55.60;;;32.10;;
52934;SDS011;38802;50.198;19.796;2022-10-26T06:59:26;54.90;;;32.40;;
52934;SDS011;38802;50.198;19.796;2022-10-26T07:01:55;54.50;;;31.50;;
52934;SDS011;38802;50.198;19.796;2022-10-26T07:04:23;59.30;;;32.20;;
52934;SDS011;38802;50.198;19.796;2022-10-26T07:06:51;53.70;;;31.70;;
52934;SDS011;38802;50.198;19.796;2022-10-26T07:09:19;50.70;;;29.00;;
52934;SDS011;38802;50.198;19.796;2022-10-26T07:11:48;49.30;;;28.70;;
52934;SDS011;38802;50.198;19.796;2022-10-26T07:14:16;52.60;;;27.90;;
52934;SDS011;38802;50.198;19.796;2022-10-26T07:16:44;54.20;;;28.30;;
52934;SDS011;38802;50.198;19.796;2022-10-26T07:19:12;44.30;;;27.80;;
52934;SDS011;38802;50.198;19.796;2022-10-26T07:21:40;38.30;;;25.80;;
52934;SDS011;38802;50.198;19.796;2022-10-26T07:24:08;48.00;;;29.00;;
52934;SDS011;38802;50.198;19.796;2022-10-26T07:26:36;45.10;;;27.50;;
52934;SDS011;38802;50.198;19.796;2022-10-26T07:29:04;47.60;;;28.50;;
52934;SDS011;38802;50.198;19.796;2022-10-26T07:31:33;40.40;;;26.80;;
52934;SDS011;38802;50.198;19.796;2022-10-26T07:34:01;56.40;;;26.10;;
52934;SDS011;38802;50.198;19.796;2022-10-26T07:36:29;43.70;;;26.10;;
52934;SDS011;38802;50.198;19.796;2022-10-26T07:38:57;42.20;;;26.70;;
52934;SDS011;38802;50.198;19.796;2022-10-26T07:41:25;37.70;;;22.90;;
52934;SDS011;38802;50.198;19.796;2022-10-26T07:43:53;35.20;;;23.60;;
52934;SDS011;38802;50.198;19.796;2022-10-26T07:46:21;38.50;;;23.80;;
52934;SDS011;38802;50.198;19.796;2022-10-26T07:48:50;41.80;;;24.30;;
52934;SDS011;38802;50.198;19.796;2022-10-26T07:51:19;36.20;;;22.30;;
52934;SDS011;38802;50.198;19.796;2022-10-26T07:53:47;35.30;;;20.70;;
52934;SDS011;38802;50.198;19.796;2022-10-26T08:28:11;13.90;;;11.20;;
52934;SDS011;38802;50.198;19.796;2022-10-26T08:30:39;11.90;;;9.20;;
52934;SDS011;38802;50.198;19.796;2022-10-26T08:33:08;9.70;;;8.80;;
52934;SDS011;38802;50.198;19.796;2022-10-26T08:35:38;19.20;;;9.70;;
52934;SDS011;38802;50.198;19.796;2022-10-26T08:38:06;11.80;;;7.60;;
52934;SDS011;38802;50.198;19.796;2022-10-26T08:40:38;8.80;;;7.10;;
52934;SDS011;38802;50.198;19.796;2022-10-26T08:48:51;10.70;;;8.50;;
52934;SDS011;38802;50.198;19.796;2022-10-26T08:51:24;12.00;;;8.00;;
52934;SDS011;38802;50.198;19.796;2022-10-26T08:54:00;12.30;;;8.40;;
52934;SDS011;38802;50.198;19.796;2022-10-26T08:56:57;11.80;;;8.40;;
52934;SDS011;38802;50.198;19.796;2022-10-26T08:59:46;14.50;;;8.90;;
52934;SDS011;38802;50.198;19.796;2022-10-26T09:02:16;10.00;;;7.80;;
52934;SDS011;38802;50.198;19.796;2022-10-26T09:04:44;10.00;;;8.80;;
52934;SDS011;38802;50.198;19.796;2022-10-26T09:10:08;9.30;;;7.90;;
52934;SDS011;38802;50.198;19.796;2022-10-26T09:15:22;10.10;;;6.40;;
52934;SDS011;38802;50.198;19.796;2022-10-26T09:26:54;7.30;;;6.00;;
52934;SDS011;38802;50.198;19.796;2022-10-26T09:29:27;10.60;;;6.40;;
52934;SDS011;38802;50.198;19.796;2022-10-26T09:34:35;11.40;;;6.20;;
52934;SDS011;38802;50.198;19.796;2022-10-26T09:37:17;6.10;;;5.50;;
52934;SDS011;38802;50.198;19.796;2022-10-26T09:42:26;8.90;;;5.80;;
52934;SDS011;38802;50.198;19.796;2022-10-26T09:45:10;7.90;;;3.90;;
52934;SDS011;38802;50.198;19.796;2022-10-26T09:47:58;7.60;;;5.20;;
52934;SDS011;38802;50.198;19.796;2022-10-26T09:50:34;7.00;;;5.00;;
52934;SDS011;38802;50.198;19.796;2022-10-26T09:53:05;5.00;;;4.30;;
52934;SDS011;38802;50.198;19.796;2022-10-26T09:55:33;7.30;;;4.90;;
52934;SDS011;38802;50.198;19.796;2022-10-26T09:58:11;8.40;;;4.40;;
52934;SDS011;38802;50.198;19.796;2022-10-26T10:00:43;7.80;;;5.00;;
52934;SDS011;38802;50.198;19.796;2022-10-26T10:03:16;5.50;;;4.80;;
52934;SDS011;38802;50.198;19.796;2022-10-26T10:05:51;5.10;;;4.40;;
52934;SDS011;38802;50.198;19.796;2022-10-26T10:08:21;5.90;;;4.10;;
52934;SDS011;38802;50.198;19.796;2022-10-26T10:13:29;10.10;;;4.80;;
52934;SDS011;38802;50.198;19.796;2022-10-26T10:18:30;4.40;;;3.80;;
52934;SDS011;38802;50.198;19.796;2022-10-26T10:21:00;9.20;;;3.40;;
52934;SDS011;38802;50.198;19.796;2022-10-26T10:23:36;8.30;;;3.90;;
52934;SDS011;38802;50.198;19.796;2022-10-26T10:26:20;6.70;;;3.20;;
52934;SDS011;38802;50.198;19.796;2022-10-26T10:28:58;5.50;;;3.30;;
52934;SDS011;38802;50.198;19.796;2022-10-26T10:31:30;4.70;;;3.70;;
52934;SDS011;38802;50.198;19.796;2022-10-26T10:34:01;4.00;;;3.10;;
52934;SDS011;38802;50.198;19.796;2022-10-26T10:36:42;4.90;;;3.50;;
52934;SDS011;38802;50.198;19.796;2022-10-26T10:39:25;5.40;;;3.40;;
52934;SDS011;38802;50.198;19.796;2022-10-26T10:42:03;3.90;;;3.00;;
52934;SDS011;38802;50.198;19.796;2022-10-26T10:44:35;5.60;;;3.00;;
52934;SDS011;38802;50.198;19.796;2022-10-26T10:47:06;3.90;;;2.50;;
52934;SDS011;38802;50.198;19.796;2022-10-26T10:49:34;5.30;;;3.90;;
52934;SDS011;38802;50.198;19.796;2022-10-26T10:52:02;8.70;;;4.00;;
52934;SDS011;38802;50.198;19.796;2022-10-26T10:54:31;5.00;;;4.20;;
52934;SDS011;38802;50.198;19.796;2022-10-26T11:05:42;3.00;;;2.20;;
52934;SDS011;38802;50.198;19.796;2022-10-26T11:08:11;5.00;;;2.40;;
52934;SDS011;38802;50.198;19.796;2022-10-26T11:13:23;4.90;;;2.60;;
52934;SDS011;38802;50.198;19.796;2022-10-26T11:16:04;5.50;;;2.90;;
52934;SDS011;38802;50.198;19.796;2022-10-26T11:18:44;6.30;;;4.30;;
52934;SDS011;38802;50.198;19.796;2022-10-26T11:21:20;4.30;;;2.90;;
52934;SDS011;38802;50.198;19.796;2022-10-26T11:32:13;2.50;;;1.90;;
52934;SDS011;38802;50.198;19.796;2022-10-26T11:34:59;8.20;;;2.00;;
52934;SDS011;38802;50.198;19.796;2022-10-26T11:37:51;4.50;;;2.10;;
52934;SDS011;38802;50.198;19.796;2022-10-26T11:43:20;5.30;;;2.00;;
52934;SDS011;38802;50.198;19.796;2022-10-26T11:46:04;7.80;;;4.20;;
52934;SDS011;38802;50.198;19.796;2022-10-26T11:51:40;5.00;;;1.90;;
52934;SDS011;38802;50.198;19.796;2022-10-26T11:57:08;8.50;;;3.70;;
52934;SDS011;38802;50.198;19.796;2022-10-26T11:59:42;3.00;;;1.80;;
52934;SDS011;38802;50.198;19.796;2022-10-26T12:02:22;2.20;;;1.40;;
52934;SDS011;38802;50.198;19.796;2022-10-26T12:05:05;3.40;;;2.00;;
52934;SDS011;38802;50.198;19.796;2022-10-26T12:07:35;2.60;;;1.30;;
52934;SDS011;38802;50.198;19.796;2022-10-26T12:10:09;6.10;;;1.80;;
52934;SDS011;38802;50.198;19.796;2022-10-26T12:12:54;3.00;;;1.50;;
52934;SDS011;38802;50.198;19.796;2022-10-26T12:15:39;2.00;;;1.40;;
52934;SDS011;38802;50.198;19.796;2022-10-26T12:21:20;2.80;;;1.50;;
52934;SDS011;38802;50.198;19.796;2022-10-26T12:26:51;9.30;;;1.50;;
52934;SDS011;38802;50.198;19.796;2022-10-26T12:32:48;2.00;;;1.20;;
52934;SDS011;38802;50.198;19.796;2022-10-26T12:37:30;1.40;;;1.20;;
52934;SDS011;38802;50.198;19.796;2022-10-26T12:45:41;2.20;;;0.90;;
52934;SDS011;38802;50.198;19.796;2022-10-26T12:59:28;5.50;;;2.00;;
52934;SDS011;38802;50.198;19.796;2022-10-26T13:07:33;3.60;;;1.50;;
52934;SDS011;38802;50.198;19.796;2022-10-26T13:12:56;2.00;;;1.40;;
52934;SDS011;38802;50.198;19.796;2022-10-26T13:18:07;4.50;;;1.40;;
52934;SDS011;38802;50.198;19.796;2022-10-26T13:20:50;4.50;;;1.50;;
52934;SDS011;38802;50.198;19.796;2022-10-26T13:23:25;2.50;;;1.10;;
52934;SDS011;38802;50.198;19.796;2022-10-26T13:31:12;4.10;;;1.80;;
52934;SDS011;38802;50.198;19.796;2022-10-26T13:33:43;5.40;;;2.20;;
52934;SDS011;38802;50.198;19.796;2022-10-26T13:36:18;3.60;;;1.80;;
52934;SDS011;38802;50.198;19.796;2022-10-26T13:39:08;3.00;;;2.10;;
52934;SDS011;38802;50.198;19.796;2022-10-26T13:41:49;5.30;;;1.60;;
52934;SDS011;38802;50.198;19.796;2022-10-26T13:44:27;4.30;;;1.70;;
52934;SDS011;38802;50.198;19.796;2022-10-26T13:47:02;5.30;;;1.90;;
52934;SDS011;38802;50.198;19.796;2022-10-26T13:49:40;3.00;;;1.80;;
52934;SDS011;38802;50.198;19.796;2022-10-26T13:52:17;2.80;;;1.60;;
52934;SDS011;38802;50.198;19.796;2022-10-26T13:54:57;4.20;;;1.90;;
52934;SDS011;38802;50.198;19.796;2022-10-26T14:00:15;3.20;;;2.60;;
52934;SDS011;38802;50.198;19.796;2022-10-26T14:05:15;4.50;;;2.80;;
52934;SDS011;38802;50.198;19.796;2022-10-26T14:07:55;5.90;;;3.20;;
52934;SDS011;38802;50.198;19.796;2022-10-26T14:10:26;4.40;;;3.00;;
52934;SDS011;38802;50.198;19.796;2022-10-26T14:13:06;4.40;;;2.70;;
52934;SDS011;38802;50.198;19.796;2022-10-26T14:15:35;4.40;;;2.50;;
52934;SDS011;38802;50.198;19.796;2022-10-26T14:18:03;9.80;;;3.20;;
52934;SDS011;38802;50.198;19.796;2022-10-26T14:20:31;8.30;;;2.90;;
52934;SDS011;38802;50.198;19.796;2022-10-26T14:22:59;8.60;;;2.50;;
52934;SDS011;38802;50.198;19.796;2022-10-26T14:25:28;4.70;;;3.00;;
52934;SDS011;38802;50.198;19.796;2022-10-26T14:28:24;8.70;;;2.60;;
52934;SDS011;38802;50.198;19.796;2022-10-26T14:31:09;7.50;;;2.80;;
52934;SDS011;38802;50.198;19.796;2022-10-26T14:33:44;6.10;;;2.70;;
52934;SDS011;38802;50.198;19.796;2022-10-26T14:36:13;4.70;;;2.20;;
52934;SDS011;38802;50.198;19.796;2022-10-26T14:38:43;3.80;;;2.80;;
52934;SDS011;38802;50.198;19.796;2022-10-26T14:41:16;3.90;;;2.60;;
52934;SDS011;38802;50.198;19.796;2022-10-26T14:43:45;8.00;;;2.90;;
52934;SDS011;38802;50.198;19.796;2022-10-26T14:46:16;7.20;;;2.80;;
52934;SDS011;38802;50.198;19.796;2022-10-26T14:48:50;4.60;;;3.00;;
52934;SDS011;38802;50.198;19.796;2022-10-26T14:51:25;4.10;;;3.20;;
52934;SDS011;38802;50.198;19.796;2022-10-26T14:53:58;4.70;;;2.70;;
52934;SDS011;38802;50.198;19.796;2022-10-26T14:59:11;8.20;;;3.70;;
52934;SDS011;38802;50.198;19.796;2022-10-26T15:04:26;4.60;;;2.70;;
52934;SDS011;38802;50.198;19.796;2022-10-26T15:07:01;5.60;;;3.40;;
52934;SDS011;38802;50.198;19.796;2022-10-26T15:14:47;8.20;;;3.50;;
52934;SDS011;38802;50.198;19.796;2022-10-26T15:17:22;5.60;;;3.50;;
52934;SDS011;38802;50.198;19.796;2022-10-26T15:20:02;5.00;;;3.30;;
52934;SDS011;38802;50.198;19.796;2022-10-26T15:22:32;6.00;;;3.10;;
52934;SDS011;38802;50.198;19.796;2022-10-26T15:25:01;5.90;;;3.50;;
52934;SDS011;38802;50.198;19.796;2022-10-26T15:27:32;5.10;;;3.10;;
52934;SDS011;38802;50.198;19.796;2022-10-26T15:30:15;6.50;;;3.40;;
52934;SDS011;38802;50.198;19.796;2022-10-26T15:32:46;25.00;;;12.00;;
52934;SDS011;38802;50.198;19.796;2022-10-26T15:37:46;27.20;;;12.40;;
52934;SDS011;38802;50.198;19.796;2022-10-26T15:40:14;19.80;;;11.70;;
52934;SDS011;38802;50.198;19.796;2022-10-26T15:42:44;20.10;;;12.70;;
52934;SDS011;38802;50.198;19.796;2022-10-26T15:45:24;34.70;;;17.80;;
52934;SDS011;38802;50.198;19.796;2022-10-26T15:47:54;39.30;;;20.40;;
52934;SDS011;38802;50.198;19.796;2022-10-26T15:50:25;43.80;;;20.20;;
52934;SDS011;38802;50.198;19.796;2022-10-26T15:52:58;47.40;;;19.90;;
52934;SDS011;38802;50.198;19.796;2022-10-26T15:55:28;41.90;;;18.10;;
52934;SDS011;38802;50.198;19.796;2022-10-26T15:57:57;30.30;;;16.00;;
52934;SDS011;38802;50.198;19.796;2022-10-26T16:00:25;32.90;;;15.90;;
52934;SDS011;38802;50.198;19.796;2022-10-26T16:02:53;21.60;;;13.50;;
52934;SDS011;38802;50.198;19.796;2022-10-26T16:05:22;23.70;;;13.40;;
52934;SDS011;38802;50.198;19.796;2022-10-26T16:07:50;24.70;;;12.40;;
52934;SDS011;38802;50.198;19.796;2022-10-26T16:10:22;17.70;;;10.30;;
52934;SDS011;38802;50.198;19.796;2022-10-26T16:12:51;16.40;;;10.50;;
52934;SDS011;38802;50.198;19.796;2022-10-26T16:15:20;17.60;;;8.60;;
52934;SDS011;38802;50.198;19.796;2022-10-26T16:17:51;17.00;;;7.40;;
52934;SDS011;38802;50.198;19.796;2022-10-26T16:20:21;10.70;;;6.60;;
52934;SDS011;38802;50.198;19.796;2022-10-26T16:22:51;12.20;;;6.20;;
52934;SDS011;38802;50.198;19.796;2022-10-26T16:25:21;11.80;;;7.50;;
52934;SDS011;38802;50.198;19.796;2022-10-26T16:27:55;10.70;;;8.50;;
52934;SDS011;38802;50.198;19.796;2022-10-26T16:30:23;10.00;;;6.60;;
52934;SDS011;38802;50.198;19.796;2022-10-26T16:32:56;6.90;;;5.60;;
52934;SDS011;38802;50.198;19.796;2022-10-26T16:35:25;13.60;;;5.00;;
52934;SDS011;38802;50.198;19.796;2022-10-26T16:37:53;7.60;;;4.50;;
52934;SDS011;38802;50.198;19.796;2022-10-26T16:40:21;7.60;;;4.60;;
52934;SDS011;38802;50.198;19.796;2022-10-26T16:42:49;5.90;;;4.80;;
52934;SDS011;38802;50.198;19.796;2022-10-26T16:45:17;7.80;;;4.30;;
52934;SDS011;38802;50.198;19.796;2022-10-26T16:47:47;10.00;;;5.30;;
52934;SDS011;38802;50.198;19.796;2022-10-26T16:50:16;6.40;;;4.10;;
52934;SDS011;38802;50.198;19.796;2022-10-26T16:52:47;6.90;;;3.30;;
52934;SDS011;38802;50.198;19.796;2022-10-26T16:55:16;5.20;;;3.40;;
52934;SDS011;38802;50.198;19.796;2022-10-26T16:57:44;10.30;;;4.00;;
52934;SDS011;38802;50.198;19.796;2022-10-26T17:00:12;7.20;;;4.10;;
52934;SDS011;38802;50.198;19.796;2022-10-26T17:02:40;8.00;;;3.90;;
52934;SDS011;38802;50.198;19.796;2022-10-26T17:05:08;9.40;;;3.90;;
52934;SDS011;38802;50.198;19.796;2022-10-26T17:07:36;5.70;;;3.90;;
52934;SDS011;38802;50.198;19.796;2022-10-26T17:10:04;7.00;;;4.30;;
52934;SDS011;38802;50.198;19.796;2022-10-26T17:12:32;77.70;;;38.30;;
52934;SDS011;38802;50.198;19.796;2022-10-26T17:15:00;29.20;;;19.80;;
52934;SDS011;38802;50.198;19.796;2022-10-26T17:17:29;8.30;;;5.40;;
52934;SDS011;38802;50.198;19.796;2022-10-26T17:19:57;6.30;;;5.00;;
52934;SDS011;38802;50.198;19.796;2022-10-26T17:22:25;5.80;;;4.50;;
52934;SDS011;38802;50.198;19.796;2022-10-26T17:24:54;7.70;;;5.20;;
52934;SDS011;38802;50.198;19.796;2022-10-26T17:27:22;9.20;;;7.90;;
52934;SDS011;38802;50.198;19.796;2022-10-26T17:29:53;9.40;;;7.20;;
52934;SDS011;38802;50.198;19.796;2022-10-26T17:32:21;7.00;;;6.40;;
52934;SDS011;38802;50.198;19.796;2022-10-26T17:34:49;10.20;;;7.00;;
52934;SDS011;38802;50.198;19.796;2022-10-26T17:37:18;10.70;;;6.00;;
52934;SDS011;38802;50.198;19.796;2022-10-26T17:39:46;9.20;;;6.80;;
52934;SDS011;38802;50.198;19.796;2022-10-26T17:42:14;6.30;;;5.30;;
52934;SDS011;38802;50.198;19.796;2022-10-26T17:44:42;11.30;;;5.50;;
52934;SDS011;38802;50.198;19.796;2022-10-26T17:47:10;5.80;;;5.30;;
52934;SDS011;38802;50.198;19.796;2022-10-26T17:49:39;10.30;;;4.50;;
52934;SDS011;38802;50.198;19.796;2022-10-26T17:52:07;9.20;;;4.40;;
52934;SDS011;38802;50.198;19.796;2022-10-26T17:54:35;15.50;;;3.80;;
52934;SDS011;38802;50.198;19.796;2022-10-26T17:57:03;9.50;;;3.70;;
52934;SDS011;38802;50.198;19.796;2022-10-26T17:59:31;13.60;;;4.60;;
52934;SDS011;38802;50.198;19.796;2022-10-26T18:01:59;7.20;;;4.80;;
52934;SDS011;38802;50.198;19.796;2022-10-26T18:06:47;8.90;;;6.40;;
52934;SDS011;38802;50.198;19.796;2022-10-26T18:09:15;11.00;;;6.40;;
52934;SDS011;38802;50.198;19.796;2022-10-26T18:11:43;6.90;;;6.00;;
52934;SDS011;38802;50.198;19.796;2022-10-26T18:14:12;7.20;;;6.40;;
52934;SDS011;38802;50.198;19.796;2022-10-26T18:16:41;10.00;;;6.10;;
52934;SDS011;38802;50.198;19.796;2022-10-26T18:19:09;7.20;;;5.30;;
52934;SDS011;38802;50.198;19.796;2022-10-26T18:21:37;8.00;;;4.80;;
52934;SDS011;38802;50.198;19.796;2022-10-26T18:24:07;5.30;;;4.80;;